sensor_id;sensor_type;location;lat;lon;timestamp;temperature;humidity
9323;DHT22;4700;48.822;9.270;2022-08-19T00:01:27;21.50;1.00
9323;DHT22;4700;48.822;9.270;2022-08-19T00:04:15;21.50;1.00
9323;DHT22;4700;48.822;9.270;2022-08-19T00:07:03;21.50;1.00
9323;DHT22;4700;48.822;9.270;2022-08-19T00:09:49;21.50;1.00
9323;DHT22;4700;48.822;9.270;2022-08-19T00:12:35;21.50;1.00
9323;DHT22;4700;48.822;9.270;2022-08-19T00:15:22;21.50;1.00
9323;DHT22;4700;48.822;9.270;2022-08-19T00:18:08;21.40;1.00
9323;DHT22;4700;48.822;9.270;2022-08-19T00:20:53;21.40;1.00
9323;DHT22;4700;48.822;9.270;2022-08-19T00:23:41;21.40;1.00
9323;DHT22;4700;48.822;9.270;2022-08-19T00:26:27;21.50;1.00
9323;DHT22;4700;48.822;9.270;2022-08-19T00:29:18;21.40;1.00
9323;DHT22;4700;48.822;9.270;2022-08-19T00:32:04;21.40;1.00
9323;DHT22;4700;48.822;9.270;2022-08-19T00:34:51;21.50;1.00
9323;DHT22;4700;48.822;9.270;2022-08-19T00:37:37;21.50;1.00
9323;DHT22;4700;48.822;9.270;2022-08-19T00:40:28;21.40;1.00
9323;DHT22;4700;48.822;9.270;2022-08-19T00:43:19;21.40;1.00
9323;DHT22;4700;48.822;9.270;2022-08-19T00:46:05;21.30;1.00
9323;DHT22;4700;48.822;9.270;2022-08-19T00:48:51;21.30;1.00
9323;DHT22;4700;48.822;9.270;2022-08-19T00:51:37;21.30;1.00
9323;DHT22;4700;48.822;9.270;2022-08-19T00:54:23;21.30;1.00
9323;DHT22;4700;48.822;9.270;2022-08-19T00:57:13;21.30;1.00
9323;DHT22;4700;48.822;9.270;2022-08-19T01:00:04;21.20;1.00
9323;DHT22;4700;48.822;9.270;2022-08-19T01:02:50;21.30;1.00
9323;DHT22;4700;48.822;9.270;2022-08-19T01:05:39;21.30;1.00
9323;DHT22;4700;48.822;9.270;2022-08-19T01:08:26;21.30;1.00
9323;DHT22;4700;48.822;9.270;2022-08-19T01:11:12;21.30;1.00
9323;DHT22;4700;48.822;9.270;2022-08-19T01:13:59;21.20;1.00
9323;DHT22;4700;48.822;9.270;2022-08-19T01:16:46;21.20;1.00
9323;DHT22;4700;48.822;9.270;2022-08-19T01:19:35;21.20;1.00
9323;DHT22;4700;48.822;9.270;2022-08-19T01:22:27;21.30;1.00
9323;DHT22;4700;48.822;9.270;2022-08-19T01:25:17;21.30;1.00
9323;DHT22;4700;48.822;9.270;2022-08-19T01:28:03;21.30;1.00
9323;DHT22;4700;48.822;9.270;2022-08-19T01:30:49;21.30;1.00
9323;DHT22;4700;48.822;9.270;2022-08-19T01:33:34;21.30;1.00
9323;DHT22;4700;48.822;9.270;2022-08-19T01:36:24;21.30;1.00
9323;DHT22;4700;48.822;9.270;2022-08-19T01:39:13;21.30;1.00
9323;DHT22;4700;48.822;9.270;2022-08-19T01:41:59;21.20;1.00
9323;DHT22;4700;48.822;9.270;2022-08-19T01:44:47;21.20;1.00
9323;DHT22;4700;48.822;9.270;2022-08-19T01:47:34;21.20;1.00
9323;DHT22;4700;48.822;9.270;2022-08-19T01:50:20;21.20;1.00
9323;DHT22;4700;48.822;9.270;2022-08-19T01:53:10;21.10;1.00
9323;DHT22;4700;48.822;9.270;2022-08-19T01:55:57;21.20;1.00
9323;DHT22;4700;48.822;9.270;2022-08-19T01:58:47;21.10;1.00
9323;DHT22;4700;48.822;9.270;2022-08-19T02:01:35;21.00;1.00
9323;DHT22;4700;48.822;9.270;2022-08-19T02:04:23;21.00;1.00
9323;DHT22;4700;48.822;9.270;2022-08-19T02:07:09;20.90;1.00
9323;DHT22;4700;48.822;9.270;2022-08-19T02:09:55;20.90;1.00
9323;DHT22;4700;48.822;9.270;2022-08-19T02:12:43;20.90;1.00
9323;DHT22;4700;48.822;9.270;2022-08-19T02:15:28;20.90;1.00
9323;DHT22;4700;48.822;9.270;2022-08-19T02:18:14;20.80;1.00
9323;DHT22;4700;48.822;9.270;2022-08-19T02:21:00;20.80;1.00
9323;DHT22;4700;48.822;9.270;2022-08-19T02:23:46;20.70;1.00
9323;DHT22;4700;48.822;9.270;2022-08-19T02:26:32;20.70;1.00
9323;DHT22;4700;48.822;9.270;2022-08-19T02:29:20;20.70;1.00
9323;DHT22;4700;48.822;9.270;2022-08-19T02:32:06;20.70;1.00
9323;DHT22;4700;48.822;9.270;2022-08-19T02:34:52;20.70;1.00
9323;DHT22;4700;48.822;9.270;2022-08-19T02:37:22;20.70;1.00
9323;DHT22;4700;48.822;9.270;2022-08-19T02:40:26;20.70;1.00
9323;DHT22;4700;48.822;9.270;2022-08-19T02:43:11;20.60;1.00
9323;DHT22;4700;48.822;9.270;2022-08-19T02:45:58;20.60;1.00
9323;DHT22;4700;48.822;9.270;2022-08-19T02:48:44;20.60;1.00
9323;DHT22;4700;48.822;9.270;2022-08-19T02:51:33;20.50;1.00
9323;DHT22;4700;48.822;9.270;2022-08-19T02:54:19;20.50;1.00
9323;DHT22;4700;48.822;9.270;2022-08-19T02:57:05;20.50;1.00
9323;DHT22;4700;48.822;9.270;2022-08-19T02:59:52;20.40;1.00
9323;DHT22;4700;48.822;9.270;2022-08-19T03:02:39;20.40;1.00
9323;DHT22;4700;48.822;9.270;2022-08-19T03:05:25;20.40;1.00
9323;DHT22;4700;48.822;9.270;2022-08-19T03:08:12;20.30;1.00
9323;DHT22;4700;48.822;9.270;2022-08-19T03:10:58;20.30;1.00
9323;DHT22;4700;48.822;9.270;2022-08-19T03:13:43;20.30;1.00
9323;DHT22;4700;48.822;9.270;2022-08-19T03:16:31;20.30;1.00
9323;DHT22;4700;48.822;9.270;2022-08-19T03:19:19;20.20;1.00
9323;DHT22;4700;48.822;9.270;2022-08-19T03:22:06;20.20;1.00
9323;DHT22;4700;48.822;9.270;2022-08-19T03:24:52;20.20;1.00
9323;DHT22;4700;48.822;9.270;2022-08-19T03:27:38;20.20;1.00
9323;DHT22;4700;48.822;9.270;2022-08-19T03:30:23;20.20;1.00
9323;DHT22;4700;48.822;9.270;2022-08-19T03:33:10;20.10;1.00
9323;DHT22;4700;48.822;9.270;2022-08-19T03:36:03;20.10;1.00
9323;DHT22;4700;48.822;9.270;2022-08-19T03:38:51;20.10;1.00
9323;DHT22;4700;48.822;9.270;2022-08-19T03:41:40;20.20;1.00
9323;DHT22;4700;48.822;9.270;2022-08-19T03:44:26;20.10;1.00
9323;DHT22;4700;48.822;9.270;2022-08-19T03:47:12;20.10;1.00
9323;DHT22;4700;48.822;9.270;2022-08-19T03:50:01;20.10;1.00
9323;DHT22;4700;48.822;9.270;2022-08-19T03:52:52;20.10;1.00
9323;DHT22;4700;48.822;9.270;2022-08-19T03:55:40;20.20;1.00
9323;DHT22;4700;48.822;9.270;2022-08-19T03:58:26;20.20;1.00
9323;DHT22;4700;48.822;9.270;2022-08-19T04:01:15;20.10;1.00
9323;DHT22;4700;48.822;9.270;2022-08-19T04:04:04;20.00;1.00
9323;DHT22;4700;48.822;9.270;2022-08-19T04:06:51;20.10;1.00
9323;DHT22;4700;48.822;9.270;2022-08-19T04:09:38;20.00;1.00
9323;DHT22;4700;48.822;9.270;2022-08-19T04:12:23;20.00;1.00
9323;DHT22;4700;48.822;9.270;2022-08-19T04:15:10;20.00;1.00
9323;DHT22;4700;48.822;9.270;2022-08-19T04:17:55;20.00;1.00
9323;DHT22;4700;48.822;9.270;2022-08-19T04:20:42;20.00;1.00
9323;DHT22;4700;48.822;9.270;2022-08-19T04:23:28;19.90;1.00
9323;DHT22;4700;48.822;9.270;2022-08-19T04:26:17;19.90;1.00
9323;DHT22;4700;48.822;9.270;2022-08-19T04:29:05;19.90;1.00
9323;DHT22;4700;48.822;9.270;2022-08-19T04:31:52;19.90;1.00
9323;DHT22;4700;48.822;9.270;2022-08-19T04:34:38;19.90;1.00
9323;DHT22;4700;48.822;9.270;2022-08-19T04:37:24;19.90;1.00
9323;DHT22;4700;48.822;9.270;2022-08-19T04:40:10;19.90;1.00
9323;DHT22;4700;48.822;9.270;2022-08-19T04:43:15;20.00;1.00
9323;DHT22;4700;48.822;9.270;2022-08-19T04:46:05;19.90;1.00
9323;DHT22;4700;48.822;9.270;2022-08-19T04:48:50;20.00;1.00
9323;DHT22;4700;48.822;9.270;2022-08-19T04:51:39;20.00;1.00
9323;DHT22;4700;48.822;9.270;2022-08-19T04:54:27;20.00;1.00
9323;DHT22;4700;48.822;9.270;2022-08-19T04:57:13;20.00;1.00
9323;DHT22;4700;48.822;9.270;2022-08-19T05:00:00;20.00;1.00
9323;DHT22;4700;48.822;9.270;2022-08-19T05:02:46;20.00;1.00
9323;DHT22;4700;48.822;9.270;2022-08-19T05:05:33;20.00;1.00
9323;DHT22;4700;48.822;9.270;2022-08-19T05:08:20;19.90;1.00
9323;DHT22;4700;48.822;9.270;2022-08-19T05:11:13;19.90;1.00
9323;DHT22;4700;48.822;9.270;2022-08-19T05:13:59;19.90;1.00
9323;DHT22;4700;48.822;9.270;2022-08-19T05:16:47;20.00;1.00
9323;DHT22;4700;48.822;9.270;2022-08-19T05:19:32;20.00;1.00
9323;DHT22;4700;48.822;9.270;2022-08-19T05:22:36;20.00;1.00
9323;DHT22;4700;48.822;9.270;2022-08-19T05:25:25;20.10;1.00
9323;DHT22;4700;48.822;9.270;2022-08-19T05:28:10;20.10;1.00
9323;DHT22;4700;48.822;9.270;2022-08-19T05:30:56;20.10;1.00
9323;DHT22;4700;48.822;9.270;2022-08-19T05:33:43;20.20;1.00
9323;DHT22;4700;48.822;9.270;2022-08-19T05:36:32;20.20;1.00
9323;DHT22;4700;48.822;9.270;2022-08-19T05:39:20;20.30;1.00
9323;DHT22;4700;48.822;9.270;2022-08-19T05:42:07;20.30;1.00
9323;DHT22;4700;48.822;9.270;2022-08-19T05:44:53;20.30;1.00
9323;DHT22;4700;48.822;9.270;2022-08-19T05:47:40;20.40;1.00
9323;DHT22;4700;48.822;9.270;2022-08-19T05:50:27;20.40;1.00
9323;DHT22;4700;48.822;9.270;2022-08-19T05:53:13;20.40;1.00
9323;DHT22;4700;48.822;9.270;2022-08-19T05:56:04;20.40;1.00
9323;DHT22;4700;48.822;9.270;2022-08-19T05:58:50;20.40;1.00
9323;DHT22;4700;48.822;9.270;2022-08-19T06:01:38;20.50;1.00
9323;DHT22;4700;48.822;9.270;2022-08-19T06:04:24;20.50;1.00
9323;DHT22;4700;48.822;9.270;2022-08-19T06:07:12;20.50;1.00
9323;DHT22;4700;48.822;9.270;2022-08-19T06:09:58;20.40;1.00
9323;DHT22;4700;48.822;9.270;2022-08-19T06:12:45;20.40;1.00
9323;DHT22;4700;48.822;9.270;2022-08-19T06:15:31;20.50;1.00
9323;DHT22;4700;48.822;9.270;2022-08-19T06:18:17;20.50;1.00
9323;DHT22;4700;48.822;9.270;2022-08-19T06:21:03;20.50;1.00
9323;DHT22;4700;48.822;9.270;2022-08-19T06:23:51;20.50;1.00
9323;DHT22;4700;48.822;9.270;2022-08-19T06:26:41;20.40;1.00
9323;DHT22;4700;48.822;9.270;2022-08-19T06:29:28;20.40;1.00
9323;DHT22;4700;48.822;9.270;2022-08-19T06:32:16;20.40;1.00
9323;DHT22;4700;48.822;9.270;2022-08-19T06:35:03;20.50;1.00
9323;DHT22;4700;48.822;9.270;2022-08-19T06:37:49;20.50;1.00
9323;DHT22;4700;48.822;9.270;2022-08-19T06:40:38;20.50;1.00
9323;DHT22;4700;48.822;9.270;2022-08-19T06:43:24;20.50;1.00
9323;DHT22;4700;48.822;9.270;2022-08-19T06:46:11;20.50;1.00
9323;DHT22;4700;48.822;9.270;2022-08-19T06:48:57;20.60;1.00
9323;DHT22;4700;48.822;9.270;2022-08-19T06:51:44;20.60;1.00
9323;DHT22;4700;48.822;9.270;2022-08-19T06:54:32;20.60;1.00
9323;DHT22;4700;48.822;9.270;2022-08-19T06:57:19;20.60;1.00
9323;DHT22;4700;48.822;9.270;2022-08-19T07:00:06;20.50;1.00
9323;DHT22;4700;48.822;9.270;2022-08-19T07:02:54;20.50;1.00
9323;DHT22;4700;48.822;9.270;2022-08-19T07:05:41;20.60;1.00
9323;DHT22;4700;48.822;9.270;2022-08-19T07:08:27;20.80;1.00
9323;DHT22;4700;48.822;9.270;2022-08-19T07:11:17;20.80;1.00
9323;DHT22;4700;48.822;9.270;2022-08-19T07:14:05;20.90;1.00
9323;DHT22;4700;48.822;9.270;2022-08-19T07:16:52;20.90;1.00
9323;DHT22;4700;48.822;9.270;2022-08-19T07:19:39;21.00;1.00
9323;DHT22;4700;48.822;9.270;2022-08-19T07:22:25;21.00;1.00
9323;DHT22;4700;48.822;9.270;2022-08-19T07:25:10;21.10;1.00
9323;DHT22;4700;48.822;9.270;2022-08-19T07:27:57;21.20;1.00
9323;DHT22;4700;48.822;9.270;2022-08-19T07:30:44;21.20;1.00
9323;DHT22;4700;48.822;9.270;2022-08-19T07:33:30;21.20;1.00
9323;DHT22;4700;48.822;9.270;2022-08-19T07:36:20;21.20;1.00
9323;DHT22;4700;48.822;9.270;2022-08-19T07:39:08;21.30;1.00
9323;DHT22;4700;48.822;9.270;2022-08-19T07:41:55;21.40;1.00
9323;DHT22;4700;48.822;9.270;2022-08-19T07:44:44;21.40;1.00
9323;DHT22;4700;48.822;9.270;2022-08-19T07:47:31;21.50;1.00
9323;DHT22;4700;48.822;9.270;2022-08-19T07:50:18;21.50;1.00
9323;DHT22;4700;48.822;9.270;2022-08-19T07:53:07;21.30;1.00
9323;DHT22;4700;48.822;9.270;2022-08-19T07:55:53;21.20;1.00
9323;DHT22;4700;48.822;9.270;2022-08-19T07:58:41;21.00;1.00
9323;DHT22;4700;48.822;9.270;2022-08-19T08:01:27;21.00;1.00
9323;DHT22;4700;48.822;9.270;2022-08-19T08:04:15;21.00;1.00
9323;DHT22;4700;48.822;9.270;2022-08-19T08:07:19;20.80;1.00
9323;DHT22;4700;48.822;9.270;2022-08-19T08:10:23;20.90;1.00
9323;DHT22;4700;48.822;9.270;2022-08-19T08:13:09;20.80;1.00
9323;DHT22;4700;48.822;9.270;2022-08-19T08:15:55;20.80;1.00
9323;DHT22;4700;48.822;9.270;2022-08-19T08:18:41;20.70;1.00
9323;DHT22;4700;48.822;9.270;2022-08-19T08:21:29;20.60;1.00
9323;DHT22;4700;48.822;9.270;2022-08-19T08:24:15;20.60;1.00
9323;DHT22;4700;48.822;9.270;2022-08-19T08:27:01;20.50;1.00
9323;DHT22;4700;48.822;9.270;2022-08-19T08:29:48;20.60;1.00
9323;DHT22;4700;48.822;9.270;2022-08-19T08:32:33;20.70;1.00
9323;DHT22;4700;48.822;9.270;2022-08-19T08:35:22;20.90;1.00
9323;DHT22;4700;48.822;9.270;2022-08-19T08:38:09;21.00;1.00
9323;DHT22;4700;48.822;9.270;2022-08-19T08:40:57;21.30;1.00
9323;DHT22;4700;48.822;9.270;2022-08-19T08:43:54;21.50;1.00
9323;DHT22;4700;48.822;9.270;2022-08-19T08:46:44;21.70;1.00
9323;DHT22;4700;48.822;9.270;2022-08-19T08:49:39;21.90;1.00
9323;DHT22;4700;48.822;9.270;2022-08-19T08:52:29;22.00;1.00
9323;DHT22;4700;48.822;9.270;2022-08-19T08:55:18;22.30;1.00
9323;DHT22;4700;48.822;9.270;2022-08-19T08:58:06;22.50;1.00
9323;DHT22;4700;48.822;9.270;2022-08-19T09:00:58;22.70;1.00
9323;DHT22;4700;48.822;9.270;2022-08-19T09:03:45;22.70;1.00
9323;DHT22;4700;48.822;9.270;2022-08-19T09:06:37;22.70;1.00
9323;DHT22;4700;48.822;9.270;2022-08-19T09:09:27;22.40;1.00
9323;DHT22;4700;48.822;9.270;2022-08-19T09:12:22;22.30;1.00
9323;DHT22;4700;48.822;9.270;2022-08-19T09:15:13;22.20;1.00
9323;DHT22;4700;48.822;9.270;2022-08-19T09:18:01;22.10;1.00
9323;DHT22;4700;48.822;9.270;2022-08-19T09:20:48;22.00;1.00
9323;DHT22;4700;48.822;9.270;2022-08-19T09:23:34;22.00;1.00
9323;DHT22;4700;48.822;9.270;2022-08-19T09:26:23;21.90;1.00
9323;DHT22;4700;48.822;9.270;2022-08-19T09:29:10;21.80;1.00
9323;DHT22;4700;48.822;9.270;2022-08-19T09:31:56;21.80;1.00
9323;DHT22;4700;48.822;9.270;2022-08-19T09:34:44;21.70;1.00
9323;DHT22;4700;48.822;9.270;2022-08-19T09:37:30;21.70;1.00
9323;DHT22;4700;48.822;9.270;2022-08-19T09:40:16;21.60;1.00
9323;DHT22;4700;48.822;9.270;2022-08-19T09:43:02;21.50;1.00
9323;DHT22;4700;48.822;9.270;2022-08-19T09:45:50;21.40;1.00
9323;DHT22;4700;48.822;9.270;2022-08-19T09:48:40;21.40;1.00
9323;DHT22;4700;48.822;9.270;2022-08-19T09:51:27;21.30;1.00
9323;DHT22;4700;48.822;9.270;2022-08-19T09:54:15;21.10;1.00
9323;DHT22;4700;48.822;9.270;2022-08-19T09:57:06;21.00;1.00
9323;DHT22;4700;48.822;9.270;2022-08-19T09:59:53;20.90;1.00
9323;DHT22;4700;48.822;9.270;2022-08-19T10:02:40;20.90;1.00
9323;DHT22;4700;48.822;9.270;2022-08-19T10:05:28;20.90;1.00
9323;DHT22;4700;48.822;9.270;2022-08-19T10:08:34;20.90;1.00
9323;DHT22;4700;48.822;9.270;2022-08-19T10:11:20;20.80;1.00
9323;DHT22;4700;48.822;9.270;2022-08-19T10:14:06;20.80;1.00
9323;DHT22;4700;48.822;9.270;2022-08-19T10:16:52;20.80;1.00
9323;DHT22;4700;48.822;9.270;2022-08-19T10:19:39;20.80;1.00
9323;DHT22;4700;48.822;9.270;2022-08-19T10:22:29;20.70;1.00
9323;DHT22;4700;48.822;9.270;2022-08-19T10:25:14;20.70;1.00
9323;DHT22;4700;48.822;9.270;2022-08-19T10:28:01;20.70;1.00
9323;DHT22;4700;48.822;9.270;2022-08-19T10:30:48;20.80;1.00
9323;DHT22;4700;48.822;9.270;2022-08-19T10:33:35;20.90;1.00
9323;DHT22;4700;48.822;9.270;2022-08-19T10:38:51;21.00;1.00
9323;DHT22;4700;48.822;9.270;2022-08-19T10:41:38;21.10;1.00
9323;DHT22;4700;48.822;9.270;2022-08-19T10:44:25;21.20;1.00
9323;DHT22;4700;48.822;9.270;2022-08-19T10:47:12;21.30;1.00
9323;DHT22;4700;48.822;9.270;2022-08-19T10:49:58;21.40;1.00
9323;DHT22;4700;48.822;9.270;2022-08-19T10:53:06;21.40;1.00
9323;DHT22;4700;48.822;9.270;2022-08-19T10:55:53;21.30;1.00
9323;DHT22;4700;48.822;9.270;2022-08-19T10:58:57;21.30;1.00
9323;DHT22;4700;48.822;9.270;2022-08-19T11:01:44;21.30;1.00
9323;DHT22;4700;48.822;9.270;2022-08-19T11:04:30;21.20;1.00
9323;DHT22;4700;48.822;9.270;2022-08-19T11:07:17;21.30;1.00
9323;DHT22;4700;48.822;9.270;2022-08-19T11:10:05;21.50;1.00
9323;DHT22;4700;48.822;9.270;2022-08-19T11:12:52;21.60;1.00
9323;DHT22;4700;48.822;9.270;2022-08-19T11:15:39;21.90;1.00
9323;DHT22;4700;48.822;9.270;2022-08-19T11:18:24;21.90;1.00
9323;DHT22;4700;48.822;9.270;2022-08-19T11:21:13;22.10;1.00
9323;DHT22;4700;48.822;9.270;2022-08-19T11:24:03;22.30;1.00
9323;DHT22;4700;48.822;9.270;2022-08-19T11:26:54;22.50;1.00
9323;DHT22;4700;48.822;9.270;2022-08-19T11:29:43;22.90;1.00
9323;DHT22;4700;48.822;9.270;2022-08-19T11:32:30;23.30;1.00
9323;DHT22;4700;48.822;9.270;2022-08-19T11:35:20;23.60;1.00
9323;DHT22;4700;48.822;9.270;2022-08-19T11:38:07;23.50;1.00
9323;DHT22;4700;48.822;9.270;2022-08-19T11:40:58;23.50;1.00
9323;DHT22;4700;48.822;9.270;2022-08-19T11:43:46;23.40;1.00
9323;DHT22;4700;48.822;9.270;2022-08-19T11:46:32;23.30;1.00
9323;DHT22;4700;48.822;9.270;2022-08-19T11:49:19;23.40;1.00
9323;DHT22;4700;48.822;9.270;2022-08-19T11:52:05;23.20;1.00
9323;DHT22;4700;48.822;9.270;2022-08-19T11:54:51;22.90;1.00
9323;DHT22;4700;48.822;9.270;2022-08-19T11:57:37;22.80;1.00
9323;DHT22;4700;48.822;9.270;2022-08-19T12:00:24;22.70;1.00
9323;DHT22;4700;48.822;9.270;2022-08-19T12:03:11;22.70;1.00
9323;DHT22;4700;48.822;9.270;2022-08-19T12:05:57;22.60;1.00
9323;DHT22;4700;48.822;9.270;2022-08-19T12:08:43;22.40;1.00
9323;DHT22;4700;48.822;9.270;2022-08-19T12:11:30;22.30;1.00
9323;DHT22;4700;48.822;9.270;2022-08-19T12:14:16;22.20;1.00
9323;DHT22;4700;48.822;9.270;2022-08-19T12:17:03;22.20;1.00
9323;DHT22;4700;48.822;9.270;2022-08-19T12:19:54;22.20;1.00
9323;DHT22;4700;48.822;9.270;2022-08-19T12:22:40;22.20;1.00
9323;DHT22;4700;48.822;9.270;2022-08-19T12:25:26;22.40;1.00
9323;DHT22;4700;48.822;9.270;2022-08-19T12:28:12;22.60;1.00
9323;DHT22;4700;48.822;9.270;2022-08-19T12:30:58;22.80;1.00
9323;DHT22;4700;48.822;9.270;2022-08-19T12:33:49;23.10;1.00
9323;DHT22;4700;48.822;9.270;2022-08-19T12:36:36;23.40;1.00
9323;DHT22;4700;48.822;9.270;2022-08-19T12:39:11;23.60;1.00
9323;DHT22;4700;48.822;9.270;2022-08-19T12:41:57;23.90;1.00
9323;DHT22;4700;48.822;9.270;2022-08-19T12:44:44;24.00;1.00
9323;DHT22;4700;48.822;9.270;2022-08-19T12:47:29;24.10;1.00
9323;DHT22;4700;48.822;9.270;2022-08-19T12:50:17;23.90;1.00
9323;DHT22;4700;48.822;9.270;2022-08-19T12:53:03;23.50;1.00
9323;DHT22;4700;48.822;9.270;2022-08-19T12:55:54;23.30;1.00
9323;DHT22;4700;48.822;9.270;2022-08-19T12:58:42;23.10;1.00
9323;DHT22;4700;48.822;9.270;2022-08-19T13:01:28;23.00;1.00
9323;DHT22;4700;48.822;9.270;2022-08-19T13:04:17;22.80;1.00
9323;DHT22;4700;48.822;9.270;2022-08-19T13:07:04;22.60;1.00
9323;DHT22;4700;48.822;9.270;2022-08-19T13:09:51;22.50;1.00
9323;DHT22;4700;48.822;9.270;2022-08-19T13:12:37;22.10;1.00
9323;DHT22;4700;48.822;9.270;2022-08-19T13:15:25;21.60;1.00
9323;DHT22;4700;48.822;9.270;2022-08-19T13:18:12;21.20;1.00
9323;DHT22;4700;48.822;9.270;2022-08-19T13:21:02;20.90;1.00
9323;DHT22;4700;48.822;9.270;2022-08-19T13:23:50;20.70;1.00
9323;DHT22;4700;48.822;9.270;2022-08-19T13:26:36;20.60;1.00
9323;DHT22;4700;48.822;9.270;2022-08-19T13:29:24;20.60;1.00
9323;DHT22;4700;48.822;9.270;2022-08-19T13:32:29;20.80;1.00
9323;DHT22;4700;48.822;9.270;2022-08-19T13:35:33;21.00;1.00
9323;DHT22;4700;48.822;9.270;2022-08-19T13:38:20;21.30;1.00
9323;DHT22;4700;48.822;9.270;2022-08-19T13:41:08;21.50;1.00
9323;DHT22;4700;48.822;9.270;2022-08-19T13:43:54;21.70;1.00
9323;DHT22;4700;48.822;9.270;2022-08-19T13:46:40;21.80;1.00
9323;DHT22;4700;48.822;9.270;2022-08-19T13:49:31;21.90;1.00
9323;DHT22;4700;48.822;9.270;2022-08-19T13:52:17;21.90;1.00
9323;DHT22;4700;48.822;9.270;2022-08-19T13:55:06;22.10;1.00
9323;DHT22;4700;48.822;9.270;2022-08-19T13:57:54;22.10;1.00
9323;DHT22;4700;48.822;9.270;2022-08-19T14:00:43;21.90;1.00
9323;DHT22;4700;48.822;9.270;2022-08-19T14:03:29;21.80;1.00
9323;DHT22;4700;48.822;9.270;2022-08-19T14:06:16;21.70;1.00
9323;DHT22;4700;48.822;9.270;2022-08-19T14:09:02;21.60;1.00
9323;DHT22;4700;48.822;9.270;2022-08-19T14:11:48;21.60;1.00
9323;DHT22;4700;48.822;9.270;2022-08-19T14:14:38;21.50;1.00
9323;DHT22;4700;48.822;9.270;2022-08-19T14:17:24;21.50;1.00
9323;DHT22;4700;48.822;9.270;2022-08-19T14:20:11;21.40;1.00
9323;DHT22;4700;48.822;9.270;2022-08-19T14:22:57;21.30;1.00
9323;DHT22;4700;48.822;9.270;2022-08-19T14:25:43;21.20;1.00
9323;DHT22;4700;48.822;9.270;2022-08-19T14:28:30;21.20;1.00
9323;DHT22;4700;48.822;9.270;2022-08-19T14:31:18;21.30;1.00
9323;DHT22;4700;48.822;9.270;2022-08-19T14:34:05;21.30;1.00
9323;DHT22;4700;48.822;9.270;2022-08-19T14:36:51;21.40;1.00
9323;DHT22;4700;48.822;9.270;2022-08-19T14:39:35;21.40;1.00
9323;DHT22;4700;48.822;9.270;2022-08-19T14:42:21;21.40;1.00
9323;DHT22;4700;48.822;9.270;2022-08-19T14:45:08;21.30;1.00
9323;DHT22;4700;48.822;9.270;2022-08-19T14:47:56;21.20;1.00
9323;DHT22;4700;48.822;9.270;2022-08-19T14:50:43;21.20;1.00
9323;DHT22;4700;48.822;9.270;2022-08-19T14:53:30;21.00;1.00
9323;DHT22;4700;48.822;9.270;2022-08-19T14:56:19;21.00;1.00
9323;DHT22;4700;48.822;9.270;2022-08-19T14:59:05;20.80;1.00
9323;DHT22;4700;48.822;9.270;2022-08-19T15:01:51;20.80;1.00
9323;DHT22;4700;48.822;9.270;2022-08-19T15:04:38;20.90;1.00
9323;DHT22;4700;48.822;9.270;2022-08-19T15:07:24;21.00;1.00
9323;DHT22;4700;48.822;9.270;2022-08-19T15:10:13;21.10;1.00
9323;DHT22;4700;48.822;9.270;2022-08-19T15:12:59;21.10;1.00
9323;DHT22;4700;48.822;9.270;2022-08-19T15:15:45;21.30;1.00
9323;DHT22;4700;48.822;9.270;2022-08-19T15:18:31;21.50;1.00
9323;DHT22;4700;48.822;9.270;2022-08-19T15:21:23;21.60;1.00
9323;DHT22;4700;48.822;9.270;2022-08-19T15:24:10;21.70;1.00
9323;DHT22;4700;48.822;9.270;2022-08-19T15:26:56;21.80;1.00
9323;DHT22;4700;48.822;9.270;2022-08-19T15:29:42;21.60;1.00
9323;DHT22;4700;48.822;9.270;2022-08-19T15:32:30;21.60;1.00
9323;DHT22;4700;48.822;9.270;2022-08-19T15:35:16;21.60;1.00
9323;DHT22;4700;48.822;9.270;2022-08-19T15:38:04;21.40;1.00
9323;DHT22;4700;48.822;9.270;2022-08-19T15:40:51;21.40;1.00
9323;DHT22;4700;48.822;9.270;2022-08-19T15:43:41;21.50;1.00
9323;DHT22;4700;48.822;9.270;2022-08-19T15:46:28;21.50;1.00
9323;DHT22;4700;48.822;9.270;2022-08-19T15:49:16;21.20;1.00
9323;DHT22;4700;48.822;9.270;2022-08-19T15:52:03;21.10;1.00
9323;DHT22;4700;48.822;9.270;2022-08-19T15:54:52;21.20;1.00
9323;DHT22;4700;48.822;9.270;2022-08-19T15:57:39;21.00;1.00
9323;DHT22;4700;48.822;9.270;2022-08-19T16:00:54;20.80;1.00
9323;DHT22;4700;48.822;9.270;2022-08-19T16:03:59;20.50;1.00
9323;DHT22;4700;48.822;9.270;2022-08-19T16:07:05;20.40;1.00
9323;DHT22;4700;48.822;9.270;2022-08-19T16:09:53;20.30;1.00
9323;DHT22;4700;48.822;9.270;2022-08-19T16:12:38;20.40;1.00
9323;DHT22;4700;48.822;9.270;2022-08-19T16:15:27;20.30;1.00
9323;DHT22;4700;48.822;9.270;2022-08-19T16:18:13;20.40;1.00
9323;DHT22;4700;48.822;9.270;2022-08-19T16:20:59;20.50;1.00
9323;DHT22;4700;48.822;9.270;2022-08-19T16:23:46;20.50;1.00
9323;DHT22;4700;48.822;9.270;2022-08-19T16:26:34;20.60;1.00
9323;DHT22;4700;48.822;9.270;2022-08-19T16:29:21;20.50;1.00
9323;DHT22;4700;48.822;9.270;2022-08-19T16:32:08;20.50;1.00
9323;DHT22;4700;48.822;9.270;2022-08-19T16:34:54;20.50;1.00
9323;DHT22;4700;48.822;9.270;2022-08-19T16:37:43;20.50;1.00
9323;DHT22;4700;48.822;9.270;2022-08-19T16:40:29;20.50;1.00
9323;DHT22;4700;48.822;9.270;2022-08-19T16:43:16;20.60;1.00
9323;DHT22;4700;48.822;9.270;2022-08-19T16:46:02;20.60;1.00
9323;DHT22;4700;48.822;9.270;2022-08-19T16:48:48;20.50;1.00
9323;DHT22;4700;48.822;9.270;2022-08-19T16:51:34;20.60;1.00
9323;DHT22;4700;48.822;9.270;2022-08-19T16:54:19;20.50;1.00
9323;DHT22;4700;48.822;9.270;2022-08-19T16:57:06;20.50;1.00
9323;DHT22;4700;48.822;9.270;2022-08-19T16:59:53;20.50;1.00
9323;DHT22;4700;48.822;9.270;2022-08-19T17:02:38;20.50;1.00
9323;DHT22;4700;48.822;9.270;2022-08-19T17:05:24;20.50;1.00
9323;DHT22;4700;48.822;9.270;2022-08-19T17:08:10;20.50;1.00
9323;DHT22;4700;48.822;9.270;2022-08-19T17:10:58;20.50;1.00
9323;DHT22;4700;48.822;9.270;2022-08-19T17:13:44;20.50;1.00
9323;DHT22;4700;48.822;9.270;2022-08-19T17:16:33;20.60;1.00
9323;DHT22;4700;48.822;9.270;2022-08-19T17:19:18;20.70;1.00
9323;DHT22;4700;48.822;9.270;2022-08-19T17:22:04;20.80;1.00
9323;DHT22;4700;48.822;9.270;2022-08-19T17:24:49;21.10;1.00
9323;DHT22;4700;48.822;9.270;2022-08-19T17:27:35;21.30;1.00
9323;DHT22;4700;48.822;9.270;2022-08-19T17:30:22;21.50;1.00
9323;DHT22;4700;48.822;9.270;2022-08-19T17:33:10;21.70;1.00
9323;DHT22;4700;48.822;9.270;2022-08-19T17:35:56;21.70;1.00
9323;DHT22;4700;48.822;9.270;2022-08-19T17:38:41;21.60;1.00
9323;DHT22;4700;48.822;9.270;2022-08-19T17:41:28;21.60;1.00
9323;DHT22;4700;48.822;9.270;2022-08-19T17:44:16;21.60;1.00
9323;DHT22;4700;48.822;9.270;2022-08-19T17:47:05;21.60;1.00
9323;DHT22;4700;48.822;9.270;2022-08-19T17:49:52;21.60;1.00
9323;DHT22;4700;48.822;9.270;2022-08-19T17:52:38;21.50;1.00
9323;DHT22;4700;48.822;9.270;2022-08-19T17:55:24;21.40;1.00
9323;DHT22;4700;48.822;9.270;2022-08-19T17:58:10;21.40;1.00
9323;DHT22;4700;48.822;9.270;2022-08-19T18:00:55;21.30;1.00
9323;DHT22;4700;48.822;9.270;2022-08-19T18:03:44;21.20;1.00
9323;DHT22;4700;48.822;9.270;2022-08-19T18:06:31;21.20;1.00
9323;DHT22;4700;48.822;9.270;2022-08-19T18:09:19;21.10;1.00
9323;DHT22;4700;48.822;9.270;2022-08-19T18:12:07;21.10;1.00
9323;DHT22;4700;48.822;9.270;2022-08-19T18:14:57;21.00;1.00
9323;DHT22;4700;48.822;9.270;2022-08-19T18:17:43;20.90;1.00
9323;DHT22;4700;48.822;9.270;2022-08-19T18:20:31;20.90;1.00
9323;DHT22;4700;48.822;9.270;2022-08-19T18:23:18;20.80;1.00
9323;DHT22;4700;48.822;9.270;2022-08-19T18:26:04;20.70;1.00
9323;DHT22;4700;48.822;9.270;2022-08-19T18:28:49;20.50;1.00
9323;DHT22;4700;48.822;9.270;2022-08-19T18:31:38;20.40;1.00
9323;DHT22;4700;48.822;9.270;2022-08-19T18:34:25;20.30;1.00